createdAt,value
2018-02-25T00:04:06.000Z,1021.988
2018-02-25T00:14:06.000Z,1021.941
2018-02-25T00:24:06.000Z,1021.854
2018-02-25T00:34:06.000Z,1021.863
2018-02-25T00:44:06.000Z,1021.895
2018-02-25T00:54:06.000Z,1021.958
2018-02-25T01:04:06.000Z,1021.912
2018-02-25T01:14:06.000Z,1021.989
2018-02-25T01:24:06.000Z,1022.024
2018-02-25T01:34:06.000Z,1022.216
2018-02-25T01:44:06.000Z,1022.192
2018-02-25T01:54:06.000Z,1022.113
2018-02-25T02:04:06.000Z,1022.134
2018-02-25T02:14:06.000Z,1022.02
2018-02-25T02:24:06.000Z,1022.036
2018-02-25T02:34:10.000Z,1022.006
2018-02-25T02:44:06.000Z,1022.023
2018-02-25T02:54:08.000Z,1022.059
2018-02-25T03:04:06.000Z,1022.247
2018-02-25T03:14:06.000Z,1022.353
2018-02-25T03:24:06.000Z,1022.425
2018-02-25T03:34:06.000Z,1022.542
2018-02-25T03:44:06.000Z,1022.572
2018-02-25T03:54:06.000Z,1022.648
2018-02-25T04:04:06.000Z,1022.765
2018-02-25T04:14:06.000Z,1022.87
2018-02-25T04:24:06.000Z,1022.905
2018-02-25T04:34:06.000Z,1022.933
2018-02-25T04:44:06.000Z,1022.857
2018-02-25T04:54:06.000Z,1022.787
2018-02-25T05:04:06.000Z,1022.737
2018-02-25T05:14:06.000Z,1022.774
2018-02-25T05:24:06.000Z,1022.816
2018-02-25T05:34:06.000Z,1022.845
2018-02-25T05:44:06.000Z,1022.809
2018-02-25T05:54:06.000Z,1022.927
2018-02-25T06:04:06.000Z,1023.016
2018-02-25T06:14:06.000Z,1023.137
2018-02-25T06:24:06.000Z,1023.175
2018-02-25T06:34:06.000Z,1023.163
2018-02-25T06:44:07.000Z,1023.224
2018-02-25T06:54:06.000Z,1023.267
2018-02-25T07:04:07.000Z,1023.306
2018-02-25T07:14:07.000Z,1023.385
2018-02-25T07:24:07.000Z,1023.501
2018-02-25T07:34:07.000Z,1023.508
2018-02-25T07:44:07.000Z,1023.489
2018-02-25T07:54:07.000Z,1023.556
2018-02-25T08:04:07.000Z,1023.663
2018-02-25T08:14:07.000Z,1023.724
2018-02-25T08:24:07.000Z,1023.736
2018-02-25T08:34:07.000Z,1023.823
2018-02-25T08:44:07.000Z,1023.835
2018-02-25T08:54:07.000Z,1023.877
2018-02-25T09:04:07.000Z,1023.783
2018-02-25T09:14:07.000Z,1023.73
2018-02-25T09:24:07.000Z,1023.735
2018-02-25T09:34:07.000Z,1023.732
2018-02-25T09:44:07.000Z,1023.681
2018-02-25T09:54:07.000Z,1023.626
2018-02-25T10:04:07.000Z,1023.652
2018-02-25T10:14:07.000Z,1023.612
2018-02-25T10:24:07.000Z,1023.635
2018-02-25T10:34:07.000Z,1023.48
2018-02-25T10:44:07.000Z,1023.349
2018-02-25T10:54:07.000Z,1023.337
2018-02-25T11:04:07.000Z,1023.225
2018-02-25T11:14:07.000Z,1023.085
2018-02-25T11:24:07.000Z,1022.977
2018-02-25T11:34:07.000Z,1022.821
2018-02-25T11:44:07.000Z,1022.753
2018-02-25T11:54:07.000Z,1022.706
2018-02-25T12:04:07.000Z,1022.624
2018-02-25T12:14:07.000Z,1022.483
2018-02-25T12:24:07.000Z,1022.446
2018-02-25T12:34:07.000Z,1022.395
2018-02-25T12:44:07.000Z,1022.373
2018-02-25T12:54:07.000Z,1022.218
2018-02-25T13:04:07.000Z,1022.139
2018-02-25T13:14:07.000Z,1022.043
2018-02-25T13:24:07.000Z,1021.983
2018-02-25T13:34:07.000Z,1021.877
2018-02-25T13:44:07.000Z,1021.727
2018-02-25T13:54:07.000Z,1021.68
2018-02-25T14:04:07.000Z,1021.681
2018-02-25T14:14:07.000Z,1021.775
2018-02-25T14:24:08.000Z,1021.647
2018-02-25T14:34:07.000Z,1021.722
2018-02-25T14:44:07.000Z,1021.751
2018-02-25T14:54:09.000Z,1021.712
2018-02-25T15:04:08.000Z,1021.649
2018-02-25T15:14:08.000Z,1021.561
2018-02-25T15:24:08.000Z,1021.62
2018-02-25T15:34:08.000Z,1021.564
2018-02-25T15:44:08.000Z,1021.613
2018-02-25T15:54:08.000Z,1021.715
2018-02-25T16:04:08.000Z,1021.815
2018-02-25T16:14:09.000Z,1021.82
2018-02-25T16:24:08.000Z,1021.792
2018-02-25T16:44:08.000Z,1021.842
2018-02-25T16:54:08.000Z,1021.921
2018-02-25T17:04:08.000Z,1022.033
2018-02-25T17:14:08.000Z,1022.099
2018-02-25T17:24:08.000Z,1022.145
2018-02-25T17:34:09.000Z,1022.187
2018-02-25T17:44:08.000Z,1022.233
2018-02-25T17:54:08.000Z,1022.256
2018-02-25T18:04:08.000Z,1022.283
2018-02-25T18:14:11.000Z,1022.257
2018-02-25T18:24:08.000Z,1022.232
2018-02-25T18:34:08.000Z,1022.241
2018-02-25T18:44:08.000Z,1022.24
2018-02-25T18:54:08.000Z,1022.335
2018-02-25T19:04:08.000Z,1022.323
2018-02-25T19:14:08.000Z,1022.359
2018-02-25T19:24:08.000Z,1022.358
2018-02-25T19:34:08.000Z,1022.39
2018-02-25T19:44:09.000Z,1022.454
2018-02-25T19:54:08.000Z,1022.499
2018-02-25T20:04:08.000Z,1022.589
2018-02-25T20:14:08.000Z,1022.613
2018-02-25T20:24:08.000Z,1022.652
2018-02-25T20:34:08.000Z,1022.526
2018-02-25T20:44:08.000Z,1022.487
2018-02-25T20:54:08.000Z,1022.478
2018-02-25T21:04:08.000Z,1022.559
2018-02-25T21:14:08.000Z,1022.6
2018-02-25T21:24:08.000Z,1022.609
2018-02-25T21:34:08.000Z,1022.654
2018-02-25T21:44:08.000Z,1022.639
2018-02-25T21:54:08.000Z,1022.619
2018-02-25T22:04:08.000Z,1022.683
2018-02-25T22:14:08.000Z,1022.687
2018-02-25T22:24:08.000Z,1022.712
2018-02-25T22:34:08.000Z,1022.728
2018-02-25T22:44:08.000Z,1022.734
2018-02-25T22:54:08.000Z,1022.691
2018-02-25T23:04:08.000Z,1022.65
2018-02-25T23:14:08.000Z,1022.572
2018-02-25T23:24:09.000Z,1022.566
2018-02-25T23:34:09.000Z,1022.539
2018-02-25T23:44:13.000Z,1022.544
2018-02-25T23:54:09.000Z,1022.511
